Terminal Aerodrome Forecast
Issued by NWS

Home | Current Version | Previous Version | Text Only | Print | Product List | Glossary On
Versions: 1 2 3 4 5 6 7 8 9 10 11 12
000
FTUS42 KTBW 211100
TAFLAL
TAF
KLAL 211121Z 2112/2212 VRB04KT P6SM BKN070 BKN150
     FM211400 17007KT P6SM SCT030 BKN070 BKN200
     FM211900 18006KT P6SM VCSH BKN050 BKN150
     FM220200 15004KT 6SM -SHRA BKN040 OVC100
     FM220800 VRB04KT 5SM SHRA BKN020 OVC070=

USA.gov is the U.S. government's official web portal to all federal, state and local government web resources and services.